FYKT/KMP METAR and TAF weather

Enter ICAO airport designator
Station Type Date Time Source
FYKT METAR 2019/08/24 20:00 UTC NOAA

FYKT 242000Z AUTO 03007KT //// // ////// 20/M08 Q1022


Station Type Date Time Source
FYKT Decoded METAR 2019/08/24 20:00 UTC NOAA

Station name not available
Aug 24, 2019 - 04:00 PM EDT / 2019.08.24 2000 UTC
Wind: from the NNE (030 degrees) at 8 MPH (7 KT):0
Temperature: 68 F (20 C)
Dew Point: 17 F (-8 C)
Relative Humidity: 14%
Pressure (altimeter): 30.18 in. Hg (1022 hPa)
ob: FYKT 242000Z AUTO 03007KT //// // ////// 20/M08 Q1022
cycle: 20

Station Type Date Time Source
FYKT TAF 2019/08/24 18:03 UTC NOAA

TAF TAF FYKT 241600Z 2418/2518 35006KT CAVOK
BECMG 2500/2502 19005KT
BECMG 2510/2512 32005KT
BECMG 2516/2518 05006KT

Example: see airport list